Terminal Aerodrome Forecast
Issued by NWS Kansas City/Pleasant Hill, MO

Home | Current Version | Previous Version | Text Only | Print | Product List | Glossary On
Versions: 1 2 3 4 5 6 7 8 9 10 11 12 13 14 15 16 17 18 19 20
553
FTUS43 KEAX 181219 AAD
TAFMCI
TAF AMD
KMCI 181219Z 1812/1912 24005KT 2SM BR OVC007
      TEMPO 1812/1814 1/2SM FG VV001
     FM181400 23006KT P6SM FEW090
     FM181800 22010G18KT P6SM FEW250=

USA.gov is the U.S. government's official web portal to all federal, state and local government web resources and services.